Champion, Canada
Current Conditions -  °F | °C
As of 9:00 PM on Thursday 27 Nov 2014 (Local Time) from CYQL Reporting Station
Overcast Overcast  
Wind Chill: 16°   Ceiling: 700
Heat Index: 25°   Visibility: 10mi
Dew Point: 23°   Wind: 8mph
Humidity: 93%   Direction: 300°WNW
Pressure: 29.67"   Gusts: NA
Location:  50.22°N, 113.15°W
Report Text: CYQL 280400Z 30007KT 10SM BKN007 OVC012 M04/M05 A2967 RMK SC7SC1 SLP090
Loading
Personal Weather Stations






























Interactive Weather Map New forecast layout! Learn more

10-Day Weather Forecast

Advertisements
Track Severe Weather on mobile